createdAt,value
2019-05-21T00:00:54.784Z,12.60
2019-05-21T00:03:23.243Z,12.60
2019-05-21T00:05:51.715Z,12.60
2019-05-21T00:08:20.556Z,12.60
2019-05-21T00:10:49.025Z,12.50
2019-05-21T00:13:17.507Z,12.50
2019-05-21T00:15:45.979Z,12.50
2019-05-21T00:18:14.502Z,12.50
2019-05-21T00:20:43.262Z,12.50
2019-05-21T00:23:12.262Z,12.50
2019-05-21T00:25:40.738Z,12.50
2019-05-21T00:28:34.779Z,12.40
2019-05-21T00:31:40.047Z,12.40
2019-05-21T00:34:44.988Z,12.40
2019-05-21T00:37:50.451Z,12.40
2019-05-21T00:40:55.608Z,12.40
2019-05-21T00:43:27.135Z,12.40
2019-05-21T00:45:55.660Z,12.40
2019-05-21T00:48:24.103Z,12.30
2019-05-21T00:50:52.590Z,12.40
2019-05-21T00:53:21.383Z,12.30
2019-05-21T00:55:49.947Z,12.40
2019-05-21T00:58:18.739Z,12.30
2019-05-21T01:00:47.207Z,12.30
2019-05-21T01:03:15.646Z,12.30
2019-05-21T01:05:44.466Z,12.30
2019-05-21T01:08:12.890Z,12.30
2019-05-21T01:10:41.772Z,12.30
2019-05-21T01:13:10.289Z,12.30
2019-05-21T01:15:38.751Z,12.30
2019-05-21T01:18:07.200Z,12.30
2019-05-21T01:20:36.076Z,12.30
2019-05-21T01:23:04.857Z,12.30
2019-05-21T01:25:33.303Z,12.20
2019-05-21T01:28:01.759Z,12.20
2019-05-21T01:30:30.490Z,12.20
2019-05-21T01:32:58.938Z,12.20
2019-05-21T01:35:27.369Z,12.20
2019-05-21T01:37:56.134Z,12.20
2019-05-21T01:40:24.931Z,12.20
2019-05-21T01:42:53.350Z,12.20
2019-05-21T01:45:22.090Z,12.30
2019-05-21T01:47:50.524Z,12.20
2019-05-21T01:50:19.356Z,12.20
2019-05-21T01:52:47.779Z,12.20
2019-05-21T01:55:16.615Z,12.20
2019-05-21T01:57:45.060Z,12.20
2019-05-21T02:00:13.988Z,12.20
2019-05-21T02:02:42.414Z,12.20
2019-05-21T02:05:10.869Z,12.10
2019-05-21T02:07:39.396Z,12.10
2019-05-21T02:10:08.466Z,12.10
2019-05-21T02:12:36.958Z,12.10
2019-05-21T02:15:07.299Z,12.10
2019-05-21T02:17:35.749Z,12.10
2019-05-21T02:20:05.647Z,12.10
2019-05-21T02:22:34.498Z,12.10
2019-05-21T02:25:03.217Z,12.10
2019-05-21T02:27:31.701Z,12.10
2019-05-21T02:30:00.132Z,12.00
2019-05-21T02:32:28.565Z,12.00
2019-05-21T02:34:57.013Z,12.00
2019-05-21T02:37:58.644Z,12.00
2019-05-21T02:40:27.050Z,12.00
2019-05-21T02:42:55.555Z,12.10
2019-05-21T02:45:24.304Z,12.10
2019-05-21T02:47:53.119Z,12.00
2019-05-21T02:50:21.560Z,12.00
2019-05-21T02:52:50.006Z,12.00
2019-05-21T02:55:18.526Z,12.00
2019-05-21T02:57:47.032Z,11.90
2019-05-21T03:00:29.267Z,11.90
2019-05-21T03:02:58.966Z,11.90
2019-05-21T03:05:27.431Z,11.90
2019-05-21T03:07:55.888Z,11.90
2019-05-21T03:10:24.673Z,11.90
2019-05-21T03:12:53.211Z,11.90
2019-05-21T03:15:21.711Z,11.90
2019-05-21T03:17:50.145Z,11.80
2019-05-21T03:20:18.731Z,11.80
2019-05-21T03:22:47.167Z,11.80
2019-05-21T03:25:15.695Z,11.80
2019-05-21T03:27:44.544Z,11.70
2019-05-21T03:30:14.369Z,11.70
2019-05-21T03:32:43.159Z,11.70
2019-05-21T03:35:12.350Z,11.70
2019-05-21T03:37:40.798Z,11.70
2019-05-21T03:40:09.927Z,11.70
2019-05-21T03:42:38.405Z,11.70
2019-05-21T03:45:08.157Z,11.70
2019-05-21T03:47:37.260Z,11.70
2019-05-21T03:50:06.793Z,11.70
2019-05-21T03:52:35.252Z,11.70
2019-05-21T03:55:04.414Z,11.70
2019-05-21T03:57:32.892Z,11.70
2019-05-21T04:00:01.659Z,11.70
2019-05-21T04:02:30.141Z,11.70
2019-05-21T04:04:58.609Z,11.70
2019-05-21T04:07:27.496Z,11.70
2019-05-21T04:09:55.924Z,11.70
2019-05-21T04:12:24.400Z,11.70
2019-05-21T04:14:54.488Z,11.70
2019-05-21T04:17:24.567Z,11.70
2019-05-21T04:19:53.394Z,11.70
2019-05-21T04:22:22.118Z,11.70
2019-05-21T04:24:50.679Z,11.70
2019-05-21T04:27:19.096Z,11.70
2019-05-21T04:29:47.538Z,11.70
2019-05-21T04:32:15.983Z,11.70
2019-05-21T04:34:44.476Z,11.70
2019-05-21T04:37:17.137Z,11.70
2019-05-21T04:39:43.081Z,11.70
2019-05-21T04:42:17.062Z,11.70
2019-05-21T04:44:45.962Z,11.70
2019-05-21T04:47:14.747Z,11.70
2019-05-21T04:49:43.182Z,11.70
2019-05-21T04:52:11.641Z,11.70
2019-05-21T04:54:40.087Z,11.70
2019-05-21T04:57:08.542Z,11.70
2019-05-21T04:59:37.035Z,11.70
2019-05-21T05:02:05.537Z,11.70
2019-05-21T05:04:34.030Z,11.80
2019-05-21T05:07:02.503Z,11.80
2019-05-21T05:09:31.028Z,11.80
2019-05-21T05:11:59.464Z,11.80
2019-05-21T05:14:27.940Z,11.70
2019-05-21T05:16:56.387Z,11.70
2019-05-21T05:19:24.831Z,11.70
2019-05-21T05:21:53.283Z,11.70
2019-05-21T05:24:21.740Z,11.70
2019-05-21T05:26:53.193Z,11.70
2019-05-21T05:29:21.761Z,11.70
2019-05-21T05:31:50.198Z,11.70
2019-05-21T05:34:18.683Z,11.70
2019-05-21T05:36:47.399Z,11.60
2019-05-21T05:39:16.173Z,11.60
2019-05-21T05:41:44.707Z,11.60
2019-05-21T05:44:13.172Z,11.60
2019-05-21T05:46:41.660Z,11.60
2019-05-21T05:49:14.519Z,11.60
2019-05-21T05:51:43.809Z,11.60
2019-05-21T05:54:12.264Z,11.60
2019-05-21T05:56:40.719Z,11.60
2019-05-21T05:59:09.519Z,11.60
2019-05-21T06:01:37.966Z,11.60
2019-05-21T06:04:06.455Z,11.60
2019-05-21T06:06:34.909Z,11.70
2019-05-21T06:09:05.422Z,11.70
2019-05-21T06:11:33.946Z,11.70
2019-05-21T06:14:02.499Z,11.70
2019-05-21T06:16:31.001Z,11.70
2019-05-21T06:18:59.500Z,11.70
2019-05-21T06:21:28.341Z,11.60
2019-05-21T06:23:56.808Z,11.60
2019-05-21T06:26:25.284Z,11.60
2019-05-21T06:28:53.744Z,11.50
2019-05-21T06:31:22.214Z,11.60
2019-05-21T06:33:50.711Z,11.60
2019-05-21T06:36:19.210Z,11.60
2019-05-21T06:38:47.734Z,11.60
2019-05-21T06:41:16.558Z,11.60
2019-05-21T06:43:45.116Z,11.60
2019-05-21T06:46:13.593Z,11.60
2019-05-21T06:48:42.061Z,11.60
2019-05-21T06:51:10.607Z,11.60
2019-05-21T06:53:39.077Z,11.60
2019-05-21T06:56:07.993Z,11.60
2019-05-21T06:58:36.496Z,11.60
2019-05-21T07:01:04.986Z,11.60
2019-05-21T07:03:33.550Z,11.60
2019-05-21T07:06:02.058Z,11.60
2019-05-21T07:08:34.536Z,11.60
2019-05-21T07:11:00.715Z,11.60
2019-05-21T07:13:31.145Z,11.60
2019-05-21T07:15:59.382Z,11.60
2019-05-21T07:18:27.823Z,11.60
2019-05-21T07:20:56.400Z,11.60
2019-05-21T07:23:24.843Z,11.70
2019-05-21T07:25:53.310Z,11.70
2019-05-21T07:28:21.801Z,11.70
2019-05-21T07:30:50.354Z,11.70
2019-05-21T07:33:18.819Z,11.60
2019-05-21T07:35:47.294Z,11.60
2019-05-21T07:38:15.738Z,11.70
2019-05-21T07:40:44.184Z,11.70
2019-05-21T07:43:12.627Z,11.70
2019-05-21T07:45:41.079Z,11.70
2019-05-21T07:48:09.557Z,11.70
2019-05-21T07:50:38.045Z,11.70
2019-05-21T07:53:06.483Z,11.70
2019-05-21T07:55:35.115Z,11.70
2019-05-21T07:58:03.924Z,11.80
2019-05-21T08:00:32.465Z,11.80
2019-05-21T08:03:00.906Z,11.80
2019-05-21T08:05:29.350Z,11.80
2019-05-21T08:07:58.083Z,11.80
2019-05-21T08:10:26.576Z,11.80
2019-05-21T08:12:55.339Z,11.80
2019-05-21T08:15:23.791Z,11.70
2019-05-21T08:17:52.611Z,11.70
2019-05-21T08:20:21.702Z,11.80
2019-05-21T08:22:50.171Z,11.70
2019-05-21T08:25:18.629Z,11.80
2019-05-21T08:27:47.134Z,11.80
2019-05-21T08:30:15.783Z,11.80
2019-05-21T08:32:44.247Z,11.80
2019-05-21T08:35:13.211Z,11.80
2019-05-21T08:37:41.694Z,11.80
2019-05-21T08:40:10.987Z,11.80
2019-05-21T08:42:39.514Z,11.90
2019-05-21T08:45:09.542Z,11.90
2019-05-21T08:47:38.092Z,11.90
2019-05-21T08:50:09.918Z,11.90
2019-05-21T08:52:38.409Z,11.90
2019-05-21T08:55:08.608Z,11.90
2019-05-21T08:57:37.151Z,11.90
2019-05-21T09:00:15.611Z,12.00
2019-05-21T09:02:44.530Z,12.00
2019-05-21T09:05:13.210Z,12.00
2019-05-21T09:07:41.697Z,12.00
2019-05-21T09:10:11.097Z,12.00
2019-05-21T09:12:39.578Z,12.10
2019-05-21T09:15:09.085Z,12.00
2019-05-21T09:17:37.569Z,12.00
2019-05-21T09:20:10.809Z,12.00
2019-05-21T09:22:39.703Z,12.10
2019-05-21T09:25:09.122Z,12.10
2019-05-21T09:27:38.202Z,12.10
2019-05-21T09:30:08.869Z,12.20
2019-05-21T09:32:37.420Z,12.20
2019-05-21T09:35:07.824Z,12.10
2019-05-21T09:37:36.359Z,12.10
2019-05-21T09:40:09.231Z,12.00
2019-05-21T09:42:38.169Z,12.10
2019-05-21T09:45:08.310Z,12.20
2019-05-21T09:47:36.786Z,12.20
2019-05-21T09:50:07.581Z,12.30
2019-05-21T09:52:36.146Z,12.30
2019-05-21T09:55:06.774Z,12.30
2019-05-21T09:57:43.924Z,12.40
2019-05-21T10:00:34.256Z,12.50
2019-05-21T10:03:04.945Z,12.60
2019-05-21T10:05:33.391Z,12.60
2019-05-21T10:08:01.930Z,12.50
2019-05-21T10:10:30.379Z,12.40
2019-05-21T10:12:58.842Z,12.30
2019-05-21T10:15:27.284Z,12.30
2019-05-21T10:17:56.132Z,12.40
2019-05-21T10:20:24.572Z,12.30
2019-05-21T10:22:53.033Z,12.30
2019-05-21T10:25:21.475Z,12.30
2019-05-21T10:27:49.904Z,12.20
2019-05-21T10:30:18.816Z,12.30
2019-05-21T10:32:47.280Z,12.40
2019-05-21T10:35:15.898Z,12.30
2019-05-21T10:37:54.543Z,12.30
2019-05-21T10:40:14.835Z,12.30
2019-05-21T10:42:43.361Z,12.40
2019-05-21T10:45:12.587Z,12.50
2019-05-21T10:47:41.049Z,12.60
2019-05-21T10:50:09.857Z,12.50
2019-05-21T10:52:38.285Z,12.50
2019-05-21T10:55:09.476Z,12.50
2019-05-21T10:57:37.916Z,12.50
2019-05-21T11:00:10.616Z,12.50
2019-05-21T11:02:40.708Z,12.60
2019-05-21T11:05:16.826Z,12.60
2019-05-21T11:07:45.716Z,12.60
2019-05-21T11:10:14.750Z,12.60
2019-05-21T11:12:43.606Z,12.60
2019-05-21T11:15:12.337Z,12.70
2019-05-21T11:17:53.693Z,12.80
2019-05-21T11:20:11.671Z,12.70
2019-05-21T11:22:40.472Z,12.70
2019-05-21T11:25:08.978Z,12.80
2019-05-21T11:27:37.430Z,12.80
2019-05-21T11:30:09.769Z,12.80
2019-05-21T11:32:38.610Z,12.80
2019-05-21T11:35:08.790Z,12.80
2019-05-21T11:37:37.258Z,12.80
2019-05-21T11:40:08.678Z,12.90
2019-05-21T11:42:37.284Z,12.90
2019-05-21T11:45:07.416Z,13.00
2019-05-21T11:47:35.892Z,13.00
2019-05-21T11:50:07.058Z,13.00
2019-05-21T11:52:35.512Z,13.00
2019-05-21T11:55:04.721Z,13.00
2019-05-21T11:57:33.180Z,13.00
2019-05-21T12:00:01.999Z,12.90
2019-05-21T12:02:30.433Z,13.00
2019-05-21T12:04:58.886Z,13.00
2019-05-21T12:07:27.386Z,13.00
2019-05-21T12:09:55.842Z,13.00
2019-05-21T12:12:24.279Z,12.90
2019-05-21T12:14:52.755Z,12.80
2019-05-21T12:17:21.552Z,12.80
2019-05-21T12:19:49.998Z,12.70
2019-05-21T12:22:18.466Z,12.70
2019-05-21T12:24:46.938Z,12.60
2019-05-21T12:27:15.506Z,12.70
2019-05-21T12:29:44.006Z,12.70
2019-05-21T12:32:12.953Z,12.70
2019-05-21T12:34:41.401Z,12.60
2019-05-21T12:37:11.027Z,12.70
2019-05-21T12:39:39.471Z,12.70
2019-05-21T12:42:07.962Z,12.70
2019-05-21T12:44:36.489Z,12.70
2019-05-21T12:47:05.043Z,12.80
2019-05-21T12:49:33.844Z,12.80
2019-05-21T12:52:02.688Z,12.80
2019-05-21T12:54:31.115Z,12.80
2019-05-21T12:56:59.564Z,12.80
2019-05-21T12:59:28.011Z,12.70
2019-05-21T13:01:56.865Z,12.70
2019-05-21T13:04:25.329Z,12.70
2019-05-21T13:06:54.479Z,12.70
2019-05-21T13:09:32.220Z,12.60
2019-05-21T13:11:53.195Z,12.60
2019-05-21T13:14:21.665Z,12.60
2019-05-21T13:16:50.132Z,12.60
2019-05-21T13:19:18.609Z,12.60
2019-05-21T13:21:47.461Z,12.70
2019-05-21T13:24:15.950Z,12.80
2019-05-21T13:26:44.488Z,12.80
2019-05-21T13:29:13.050Z,12.80
2019-05-21T13:31:41.606Z,12.80
2019-05-21T13:34:10.085Z,12.80
2019-05-21T13:36:38.580Z,12.80
2019-05-21T13:39:09.615Z,12.70
2019-05-21T13:41:38.069Z,12.80
2019-05-21T13:44:06.499Z,12.80
2019-05-21T13:46:35.852Z,12.80
2019-05-21T13:49:04.941Z,12.80
2019-05-21T13:51:33.401Z,12.90
2019-05-21T13:54:02.216Z,13.00
2019-05-21T13:56:30.755Z,13.00
2019-05-21T13:58:59.199Z,13.20
2019-05-21T14:01:39.992Z,13.30
2019-05-21T14:03:57.849Z,13.30
2019-05-21T14:06:26.283Z,13.30
2019-05-21T14:08:54.841Z,13.30
2019-05-21T14:11:23.806Z,13.40
2019-05-21T14:13:52.302Z,13.30
2019-05-21T14:16:20.800Z,13.40
2019-05-21T14:18:49.734Z,13.40
2019-05-21T14:21:18.348Z,13.30
2019-05-21T14:23:46.850Z,13.20
2019-05-21T14:26:15.331Z,13.20
2019-05-21T14:28:43.859Z,13.10
2019-05-21T14:31:12.282Z,13.00
2019-05-21T14:33:40.755Z,13.00
2019-05-21T14:36:09.527Z,13.10
2019-05-21T14:38:37.997Z,13.10
2019-05-21T14:41:06.483Z,13.20
2019-05-21T14:43:35.476Z,13.10
2019-05-21T14:46:04.218Z,13.20
2019-05-21T14:48:32.685Z,13.20
2019-05-21T14:51:01.154Z,13.20
2019-05-21T14:53:29.590Z,13.10
2019-05-21T14:55:58.392Z,13.20
2019-05-21T14:58:26.881Z,13.10
2019-05-21T15:00:55.723Z,13.10
2019-05-21T15:03:25.597Z,13.10
2019-05-21T15:05:54.429Z,13.10
2019-05-21T15:08:23.339Z,13.10
2019-05-21T15:10:51.803Z,13.10
2019-05-21T15:13:20.240Z,13.20
2019-05-21T15:15:48.706Z,13.20
2019-05-21T15:18:21.967Z,13.30
2019-05-21T15:20:49.006Z,13.30
2019-05-21T15:23:17.508Z,13.30
2019-05-21T15:25:45.951Z,13.20
2019-05-21T15:28:17.387Z,13.20
2019-05-21T15:30:45.824Z,13.20
2019-05-21T15:33:14.275Z,13.30
2019-05-21T15:35:42.760Z,13.30
2019-05-21T15:38:11.652Z,13.30
2019-05-21T15:40:40.411Z,13.30
2019-05-21T15:43:08.918Z,13.30
2019-05-21T15:45:37.703Z,13.30
2019-05-21T15:48:06.147Z,13.30
2019-05-21T15:50:35.062Z,13.30
2019-05-21T15:53:03.482Z,13.20
2019-05-21T15:55:31.951Z,13.20
2019-05-21T15:58:00.481Z,13.20
2019-05-21T16:00:29.116Z,13.20
2019-05-21T16:02:57.565Z,13.30
2019-05-21T16:05:26.129Z,13.30
2019-05-21T16:07:54.695Z,13.30
2019-05-21T16:10:23.126Z,13.20
2019-05-21T16:12:54.150Z,13.20
2019-05-21T16:15:22.125Z,13.30
2019-05-21T16:17:50.564Z,13.30
2019-05-21T16:20:19.946Z,13.30
2019-05-21T16:22:48.391Z,13.30
2019-05-21T16:25:17.283Z,13.20
2019-05-21T16:27:45.724Z,13.30
2019-05-21T16:30:14.308Z,13.20
2019-05-21T16:32:43.135Z,13.20
2019-05-21T16:35:11.901Z,13.30
2019-05-21T16:37:40.528Z,13.30
2019-05-21T16:40:10.126Z,13.20
2019-05-21T16:42:38.578Z,13.20
2019-05-21T16:45:08.755Z,13.20
2019-05-21T16:47:45.542Z,13.20
2019-05-21T16:50:08.847Z,13.20
2019-05-21T16:52:38.353Z,13.20
2019-05-21T16:55:07.724Z,13.20
2019-05-21T16:57:36.560Z,13.20
2019-05-21T17:00:07.631Z,13.20
2019-05-21T17:02:36.457Z,13.10
2019-05-21T17:05:08.978Z,13.10
2019-05-21T17:07:37.530Z,13.10
2019-05-21T17:10:06.539Z,13.10
2019-05-21T17:12:34.990Z,13.10
2019-05-21T17:15:05.487Z,13.10
2019-05-21T17:17:33.930Z,13.00
2019-05-21T17:20:03.096Z,13.00
2019-05-21T17:22:31.888Z,13.00
2019-05-21T17:25:00.311Z,13.00
2019-05-21T17:27:29.127Z,13.00
2019-05-21T17:29:57.553Z,12.90
2019-05-21T17:32:26.022Z,12.90
2019-05-21T17:34:56.478Z,12.90
2019-05-21T17:37:25.324Z,12.90
2019-05-21T17:39:53.855Z,12.90
2019-05-21T17:42:22.313Z,12.90
2019-05-21T17:44:50.760Z,12.90
2019-05-21T17:47:19.542Z,12.90
2019-05-21T17:49:48.042Z,12.90
2019-05-21T17:52:16.588Z,12.90
2019-05-21T17:54:56.329Z,12.90
2019-05-21T17:57:15.411Z,12.80
2019-05-21T17:59:43.906Z,12.80
2019-05-21T18:02:15.069Z,12.80
2019-05-21T18:04:43.644Z,12.80
2019-05-21T18:07:13.075Z,12.80
2019-05-21T18:09:42.406Z,12.80
2019-05-21T18:12:12.599Z,12.70
2019-05-21T18:14:41.582Z,12.80
2019-05-21T18:17:11.758Z,12.80
2019-05-21T18:19:59.412Z,12.70
2019-05-21T18:22:30.015Z,12.70
2019-05-21T18:25:06.791Z,12.70
2019-05-21T18:27:43.004Z,12.70
2019-05-21T18:30:12.780Z,12.70
2019-05-21T18:32:41.373Z,12.70
2019-05-21T18:35:10.269Z,12.70
2019-05-21T18:37:39.988Z,12.70
2019-05-21T18:40:12.701Z,12.70
2019-05-21T18:42:41.257Z,12.70
2019-05-21T18:45:10.805Z,12.70
2019-05-21T18:47:40.805Z,12.70
2019-05-21T18:50:09.911Z,12.70
2019-05-21T18:52:38.433Z,12.70
2019-05-21T18:55:07.219Z,12.70
2019-05-21T18:57:36.045Z,12.70
2019-05-21T19:00:07.939Z,12.70
2019-05-21T19:02:36.859Z,12.70
2019-05-21T19:05:09.657Z,12.70
2019-05-21T19:07:38.470Z,12.70
2019-05-21T19:10:19.227Z,12.60
2019-05-21T19:12:47.721Z,12.60
2019-05-21T19:15:16.623Z,12.60
2019-05-21T19:17:45.223Z,12.60
2019-05-21T19:20:23.638Z,12.60
2019-05-21T19:22:52.419Z,12.60
2019-05-21T19:25:20.880Z,12.60
2019-05-21T19:27:49.463Z,12.60
2019-05-21T19:30:18.446Z,12.60
2019-05-21T19:32:47.556Z,12.60
2019-05-21T19:35:17.091Z,12.60
2019-05-21T19:37:45.584Z,12.60
2019-05-21T19:40:14.208Z,12.60
2019-05-21T19:42:54.361Z,12.60
2019-05-21T19:45:13.663Z,12.60
2019-05-21T19:47:42.219Z,12.60
2019-05-21T19:50:11.409Z,12.60
2019-05-21T19:52:39.873Z,12.60
2019-05-21T19:55:08.960Z,12.60
2019-05-21T19:57:38.307Z,12.60
2019-05-21T20:00:08.508Z,12.60
2019-05-21T20:02:37.212Z,12.60
2019-05-21T20:05:07.778Z,12.60
2019-05-21T20:07:36.923Z,12.60
2019-05-21T20:10:07.208Z,12.60
2019-05-21T20:12:36.557Z,12.60
2019-05-21T20:15:07.862Z,12.60
2019-05-21T20:17:38.021Z,12.60
2019-05-21T20:20:09.188Z,12.60
2019-05-21T20:22:43.721Z,12.60
2019-05-21T20:25:12.974Z,12.60
2019-05-21T20:27:42.183Z,12.60
2019-05-21T20:30:13.096Z,12.60
2019-05-21T20:32:42.977Z,12.60
2019-05-21T20:35:14.127Z,12.60
2019-05-21T20:37:44.359Z,12.60
2019-05-21T20:40:14.761Z,12.60
2019-05-21T20:42:43.259Z,12.60
2019-05-21T20:45:14.522Z,12.60
2019-05-21T20:47:44.532Z,12.60
2019-05-21T20:50:15.066Z,12.60
2019-05-21T20:52:43.818Z,12.50
2019-05-21T20:55:12.823Z,12.50
2019-05-21T20:57:42.227Z,12.50
2019-05-21T21:00:13.357Z,12.50
2019-05-21T21:02:42.740Z,12.50
2019-05-21T21:05:12.072Z,12.50
2019-05-21T21:07:41.108Z,12.50
2019-05-21T21:10:12.184Z,12.50
2019-05-21T21:12:41.463Z,12.50
2019-05-21T21:15:11.735Z,12.50
2019-05-21T21:17:40.442Z,12.50
2019-05-21T21:20:09.250Z,12.50
2019-05-21T21:22:37.701Z,12.50
2019-05-21T21:25:07.377Z,12.50
2019-05-21T21:27:36.849Z,12.50
2019-05-21T21:30:09.915Z,12.50
2019-05-21T21:32:39.473Z,12.50
2019-05-21T21:35:10.149Z,12.40
2019-05-21T21:37:38.728Z,12.40
2019-05-21T21:40:10.247Z,12.40
2019-05-21T21:42:40.032Z,12.40
2019-05-21T21:45:09.107Z,12.40
2019-05-21T21:47:38.439Z,12.40
2019-05-21T21:50:07.153Z,12.40
2019-05-21T21:52:36.613Z,12.40
2019-05-21T21:55:07.693Z,12.40
2019-05-21T21:57:36.148Z,12.30
2019-05-21T22:00:10.290Z,12.40
2019-05-21T22:02:39.754Z,12.40
2019-05-21T22:05:09.719Z,12.40
2019-05-21T22:07:38.755Z,12.40
2019-05-21T22:10:08.670Z,12.40
2019-05-21T22:12:37.207Z,12.40
2019-05-21T22:15:09.986Z,12.40
2019-05-21T22:17:38.960Z,12.40
2019-05-21T22:20:09.526Z,12.30
2019-05-21T22:22:38.268Z,12.40
2019-05-21T22:25:07.293Z,12.40
2019-05-21T22:27:35.870Z,12.30
2019-05-21T22:30:06.455Z,12.40
2019-05-21T22:32:34.945Z,12.40
2019-05-21T22:35:04.345Z,12.40
2019-05-21T22:37:32.855Z,12.40
2019-05-21T22:40:01.465Z,12.30
2019-05-21T22:42:31.939Z,12.40
2019-05-21T22:45:08.114Z,12.40
2019-05-21T22:47:31.128Z,12.40
2019-05-21T22:49:59.567Z,12.40
2019-05-21T22:52:28.013Z,12.40
2019-05-21T22:54:56.461Z,12.30
2019-05-21T22:57:26.246Z,12.30
2019-05-21T22:59:55.305Z,12.30
2019-05-21T23:02:25.395Z,12.30
2019-05-21T23:04:53.870Z,12.30
2019-05-21T23:07:22.338Z,12.30
2019-05-21T23:09:51.566Z,12.30
2019-05-21T23:12:20.196Z,12.30
2019-05-21T23:14:49.543Z,12.30
2019-05-21T23:17:18.030Z,12.30
2019-05-21T23:19:50.043Z,12.30
2019-05-21T23:22:19.876Z,12.30
2019-05-21T23:24:48.356Z,12.30
2019-05-21T23:27:17.463Z,12.30
2019-05-21T23:29:46.088Z,12.30
2019-05-21T23:32:15.304Z,12.30
2019-05-21T23:34:44.966Z,12.30
2019-05-21T23:37:16.663Z,12.30
2019-05-21T23:39:46.025Z,12.30
2019-05-21T23:42:28.669Z,12.30
2019-05-21T23:44:45.639Z,12.30
2019-05-21T23:47:15.832Z,12.30
2019-05-21T23:49:44.275Z,12.30
2019-05-21T23:52:12.740Z,12.30
2019-05-21T23:54:41.218Z,12.30
2019-05-21T23:57:12.860Z,12.30
2019-05-21T23:59:42.446Z,12.30
